Terminal Aerodrome Forecast
Issued by NWS

Home | Current Version | Previous Version | Text Only | Print | Product List | Glossary On
Versions: 1 2 3 4 5 6 7 8 9 10 11 12 13 14 15 16 17 18 19 20 21 22 23 24 25 26 27 28 29 30 31 32 33 34 35 36 37 38
000
FTUS46 KLOX 010500 AAA
TAFLAX
TAF AMD
KLAX 010549Z 0106/0212 22012G20KT P6SM BKN030 OVC040
     FM010630 20015G23KT 2SM +RA BR OVC015
     FM010800 22015KT 4SM RA BR SCT015 OVC025
     FM011100 26015G22KT 5SM -RA BR SCT015 OVC025
     FM011400 28012KT P6SM -SHRA SCT025 OVC035
     FM011800 27015KT P6SM SCT025 OVC040
     FM020900 31008KT P6SM OVC050=

USA.gov is the U.S. government's official web portal to all federal, state and local government web resources and services.